The Florida Keys Marathon Airport Marathon US
ICAO: KMTH
IATA: MTH
Category: Medium
Scheduled Services: No

Elevation: 5 ft
TransAlt. 18000 ft.

Airport Communications:
ASOS:135.525
MIAMI CNTR:133.5
MIAMI RDO:122.6
CTAF/UNICOM:122.8

KMTH Zoom In..

Runways:

(A) RW 07 length 5008 ft width 100 ft
---- / hdg 71

(B) RW 25 length 5008 ft width 100 ft
---- / hdg 251

Location; KMTH
Day. 23 / Time. 02.53 Zulu
* Altimeter: 29.95
* Temperature: 31° c. 87.8°f.
* Wind from: 270° Speed 07 kn.
Dewpoint: 24° c.
Visibility: 10 Statute Miles.
Clouds: Few 2900 ft.

KMTH 230253Z AUTO 27007KT 10SM FEW029 31/24 A2995 RMK AO2 LTG DSNT E SLP141 T03060244 51010


Wind From 270°
Speed 07 kn.

 
 
jpsmedia.com for Web Design worldairports.se 2018   terms of use